Ana Sayfa
METAR-TAF:

METAR-TAF

Havaalanları :

Rarotonga, Cook Adaları

Enlem: 21-12S, Boylam: 159-49W, yükseklik: 7 m

Güncel hava durumu gözlemi

Rapor saat 14:00 UTC de 20 dakika önce yapıldı.
Rüzgar güneydan 2 kt
Sıcaklık 22°C
Nem 94%
Basınç 1012 hPa
Görüş mesafesi 10 km veya daha fazla
1500 ft yükseklikte az bulutlu

METAR: NCRG 221400Z 17002KT 9999 FEW015 22/21 Q1012

Saat: 04:20 (14:20 UTC)

Tahmin

Rapor saat 11:13 UTC de 3 saat ve 7 dakika önce yapıldı.
Ayın 22'si saat 12 UTC'den ayın 23'si saat 12 UTC'ye kadar geçerli Tahmin
Rüzgar değişken yönden 3 kt
Görüş mesafesi 10 km veya daha fazla
1600 ft yükseklikte parçalı bulutlu
4000 ft yükseklikte parçalı bulutlu
Dönüşüyor
ayın 23'si saat 03 UTC'den ayın 23'si saat 05 UTC'ye kadar
Rüzgar güney/güneydoğudan 8 kt

TAF: NCRG 221113Z 2212/2312 VRB03KT 9999 SCT016 SCT040 BECMG 2303/2305 15008KT

4.000'den fazla havaalanı için hava durumu gözlemleri ve tahminleri (METAR ve TAF raporları).

Kullanılabilir istasyonlar harita üzerinde sarı ve kırmızı noktalarla gösterilir.

İstasyonun adını görmek için fareyi noktanın üzerinde gezdirin.

Sonrasında hava gözlem ve tahminlerini görmek için tıklayın.

Haritayı değiştirmek için: yaklaştırmak için siyah artı işaretli yeşil düğmeye ve uzaklaştırmak için de eksi işaretli düğmeye hızla tıklayın; bitişik haritalar için yeşil okları kullanın.


METAR-TAF: